Data for 04/08/2013

Time Sea-Level Adjusted Pressure Absolute Pressure Temperature Relative Humidity Dew Point   
(mb) (inHg) (mb) (inHg) (C) (F) (%) (C) (F)
00:05 1009 29.8 839 24.78 -0.2 31.6 86 -2.3 27.9
00:10 1009 29.8 839 24.78 -0.4 31.2 89 -2.1 28.2
00:15 1009 29.8 839 24.78 -0.5 31.1 89 -2.1 28.2
00:20 1010 29.83 839 24.78 -0.6 30.9 90 -2.1 28.2
00:25 1010 29.83 839 24.78 -0.7 30.7 89 -2.3 27.9
00:30 1010 29.83 839 24.78 -0.8 30.5 90 -2.3 27.9
00:35 1009 29.8 839 24.78 -0.9 30.3 90 -2.4 27.6
00:40 1009 29.8 839 24.78 -1.1 30 90 -2.6 27.3
00:45 1009 29.8 839 24.78 -1.2 29.8 90 -2.6 27.4
00:50 1009 29.8 838 24.75 -1.3 29.7 90 -2.8 27
00:55 1009 29.8 838 24.75 -1.5 29.4 90 -2.9 26.8
01:00 1009 29.8 839 24.78 -1.6 29.1 91 -2.9 26.8
01:05 1010 29.83 839 24.78 -1.8 28.8 91 -3 26.6
01:10 1010 29.83 839 24.78 -1.9 28.6 92 -3.1 26.4
01:15 1009 29.8 839 24.78 -2 28.4 92 -3.1 26.3
01:20 1010 29.83 839 24.78 -2 28.4 92 -3.1 26.3
01:25 1009 29.8 839 24.78 -2 28.4 92 -3.1 26.3
01:30 1009 29.8 839 24.78 -2 28.4 92 -3.1 26.5
01:35 1010 29.83 839 24.78 -2.1 28.3 93 -3.1 26.4
01:40 1010 29.83 839 24.78 -2.1 28.2 93 -3.2 26.3
01:45 1010 29.83 839 24.78 -2 28.3 92 -3.1 26.4
01:50 1010 29.83 839 24.78 -2 28.4 93 -3 26.6
01:55 1010 29.83 839 24.78 -2 28.4 92 -3.1 26.4
02:00 1010 29.83 839 24.78 -2 28.5 92 -3.2 26.3
02:05 1010 29.83 839 24.78 -2 28.4 91 -3.3 26
02:10 1010 29.83 839 24.78 -2 28.3 91 -3.4 25.9
02:15 1010 29.83 839 24.78 -2.1 28.3 91 -3.3 26.1
02:20 1010 29.83 839 24.78 -2.1 28.2 91 -3.5 25.8
02:25 1010 29.83 839 24.78 -2.2 28 90 -3.6 25.5
02:30 1010 29.83 839 24.78 -2.3 27.8 90 -3.7 25.4
02:35 1010 29.83 839 24.78 -2.4 27.6 90 -3.8 25.1
02:40 1010 29.83 839 24.78 -2.6 27.4 90 -4 24.8
02:45 1010 29.83 839 24.78 -2.6 27.3 90 -4 24.8
02:50 1010 29.83 840 24.81 -2.7 27.2 89 -4.3 24.3
02:55 1010 29.83 840 24.81 -2.8 27 89 -4.3 24.2
03:00 1010 29.83 840 24.81 -2.9 26.9 89 -4.4 24.1
03:05 1010 29.83 840 24.81 -3 26.6 89 -4.6 23.7
03:10 1011 29.85 840 24.81 -3.2 26.3 88 -4.9 23.3
03:15 1011 29.85 840 24.81 -3.3 26.1 88 -4.9 23.1
03:20 1010 29.83 840 24.81 -3.3 26.1 89 -4.8 23.3
03:25 1010 29.83 840 24.81 -3.4 25.9 89 -4.9 23.2
03:30 1010 29.83 840 24.81 -3.4 26 90 -4.8 23.4
03:35 1011 29.85 840 24.81 -3.4 26 90 -4.8 23.4
03:40 1011 29.85 840 24.81 -3.3 26.1 89 -4.8 23.4
03:45 1011 29.85 840 24.81 -3.2 26.2 89 -4.7 23.6
03:50 1011 29.85 840 24.81 -3.1 26.3 90 -4.6 23.8
03:55 1010 29.83 840 24.81 -3.1 26.3 90 -4.5 23.8
04:00 1010 29.83 840 24.81 -3.1 26.5 88 -4.7 23.5
04:05 1010 29.83 840 24.81 -3.1 26.4 89 -4.7 23.6
04:10 1010 29.83 840 24.81 -3.1 26.4 87 -4.9 23.2
04:15 1011 29.85 840 24.81 -3 26.5 87 -4.9 23.1
04:20 1011 29.85 840 24.81 -2.8 26.9 83 -5.3 22.5
04:25 1011 29.85 840 24.81 -2.8 27 81 -5.6 21.8
04:30 1011 29.85 840 24.81 -2.9 26.8 80 -5.8 21.5
04:35 1011 29.85 840 24.81 -2.9 26.7 81 -5.7 21.7
04:40 1011 29.85 840 24.81 -3 26.7 80 -5.9 21.3
04:45 1011 29.85 840 24.81 -2.9 26.8 80 -5.8 21.5
04:50 1011 29.85 840 24.81 -2.9 26.7 80 -5.9 21.4
04:55 1011 29.85 840 24.81 -3 26.6 80 -6 21.1
05:00 1011 29.85 840 24.81 -3 26.6 80 -6 21.3
05:05 1011 29.85 840 24.81 -3 26.5 82 -5.7 21.7
05:10 1011 29.85 840 24.81 -3.1 26.5 79 -6.2 20.9
05:15 1011 29.85 840 24.81 -3.1 26.4 78 -6.4 20.4
05:20 1011 29.85 840 24.81 -3.1 26.4 78 -6.4 20.5
05:25 1011 29.85 840 24.81 -3.2 26.3 78 -6.5 20.3
05:30 1011 29.85 840 24.81 -3.2 26.3 79 -6.3 20.7
05:35 1011 29.85 840 24.81 -3.3 26.1 80 -6.2 20.8
05:40 1011 29.85 840 24.81 -3.3 26 80 -6.3 20.7
05:45 1011 29.85 840 24.81 -3.2 26.2 78 -6.5 20.3
05:50 1011 29.85 840 24.81 -3.2 26.3 76 -6.8 19.8
05:55 1011 29.85 840 24.81 -3.1 26.4 77 -6.5 20.2
06:00 1011 29.85 840 24.81 -3.1 26.4 77 -6.6 20.1
06:05 1011 29.85 841 24.83 -3.1 26.5 76 -6.7 19.9
06:10 1012 29.88 841 24.83 -3 26.5 78 -6.4 20.4
06:15 1012 29.88 841 24.83 -3.2 26.3 80 -6.2 20.8
06:20 1012 29.88 841 24.83 -3.3 26 80 -6.3 20.7
06:25 1012 29.88 841 24.83 -3.5 25.7 82 -6.1 20.9
06:30 1012 29.88 841 24.83 -3.6 25.5 83 -6.1 21
06:35 1012 29.88 841 24.83 -3.7 25.3 83 -6.2 20.8
06:40 1012 29.88 841 24.83 -3.8 25.1 83 -6.3 20.6
06:45 1012 29.88 841 24.83 -3.9 25 82 -6.6 20.2
06:50 1012 29.88 841 24.83 -3.9 25 81 -6.8 19.8
06:55 1012 29.88 841 24.83 -3.9 24.9 80 -6.8 19.7
07:00 1012 29.88 842 24.86 -4 24.8 82 -6.7 20
07:05 1012 29.88 842 24.86 -4.1 24.6 81 -6.9 19.5
07:10 1012 29.88 842 24.86 -4.3 24.3 81 -7.1 19.3
07:15 1013 29.91 842 24.86 -4.3 24.3 81 -7.1 19.1
07:20 1013 29.91 842 24.86 -4.3 24.2 81 -7.2 19
07:25 1013 29.91 842 24.86 -4.5 24 82 -7.2 19.1
07:30 1013 29.91 842 24.86 -4.4 24 81 -7.3 18.9
07:35 1013 29.91 842 24.86 -4.6 23.7 80 -7.6 18.3
07:40 1013 29.91 842 24.86 -4.6 23.7 81 -7.4 18.7
07:45 1013 29.91 842 24.86 -4.8 23.4 82 -7.3 18.8
07:50 1013 29.91 842 24.86 -4.8 23.4 82 -7.4 18.7
07:55 1013 29.91 842 24.86 -4.8 23.3 83 -7.3 18.8
08:00 1013 29.91 842 24.86 -4.9 23.3 83 -7.4 18.7
08:05 1013 29.91 842 24.86 -4.8 23.4 82 -7.4 18.7
08:10 1013 29.91 842 24.86 -4.8 23.4 82 -7.4 18.6
08:15 1013 29.91 842 24.86 -4.8 23.4 82 -7.4 18.8
08:20 1013 29.91 843 24.89 -4.8 23.4 83 -7.2 19
08:25 1013 29.91 843 24.89 -4.8 23.3 84 -7.2 19
08:30 1013 29.91 843 24.89 -5 22.9 83 -7.5 18.4
08:35 1014 29.94 843 24.89 -5.3 22.4 84 -7.6 18.2
08:40 1014 29.94 843 24.89 -5.5 22.1 83 -7.9 17.7
08:45 1014 29.94 843 24.89 -5.5 22 81 -8.2 17.2
08:50 1014 29.94 843 24.89 -5.7 21.7 81 -8.5 16.6
08:55 1014 29.94 843 24.89 -5.9 21.4 79 -9 15.9
09:00 1014 29.94 843 24.89 -5.9 21.4 78 -9.2 15.4
09:05 1014 29.94 843 24.89 -5.8 21.5 76 -9.3 15.2
09:10 1014 29.94 843 24.89 -6 21.2 78 -9.3 15.3
09:15 1014 29.94 843 24.89 -6.1 21 77 -9.6 14.8
09:20 1014 29.94 843 24.89 -6.2 20.9 76 -9.8 14.4
09:25 1014 29.94 844 24.92 -6.1 21 76 -9.7 14.6
09:30 1014 29.94 844 24.92 -6.1 21 76 -9.6 14.7
09:35 1014 29.94 844 24.92 -6.1 21 76 -9.6 14.7
09:40 1014 29.94 844 24.92 -6.1 21 78 -9.4 15.1
09:45 1014 29.94 844 24.92 -6 21.1 75 -9.8 14.3
09:50 1015 29.97 844 24.92 -5.9 21.4 76 -9.5 15
09:55 1015 29.97 844 24.92 -5.9 21.4 75 -9.7 14.5
10:00 1015 29.97 844 24.92 -5.9 21.4 74 -9.7 14.5
10:05 1015 29.97 844 24.92 -5.7 21.7 72 -10 14
10:10 1015 29.97 844 24.92 -5.8 21.6 74 -9.7 14.6
10:15 1015 29.97 844 24.92 -5.7 21.7 72 -9.9 14.1
10:20 1015 29.97 844 24.92 -5.6 21.9 72 -9.8 14.3
10:25 1015 29.97 844 24.92 -5.7 21.7 73 -9.8 14.4
10:30 1015 29.97 844 24.92 -5.6 22 71 -9.9 14.1
10:35 1015 29.97 844 24.92 -5.3 22.4 70 -10 14.1
10:40 1015 29.97 844 24.92 -5.3 22.5 71 -9.7 14.5
10:45 1015 29.97 844 24.92 -5.2 22.7 73 -9.3 15.3
10:50 1015 29.97 845 24.95 -5.3 22.4 74 -9.3 15.3
10:55 1015 29.97 845 24.95 -5.4 22.3 73 -9.5 14.9
11:00 1015 29.97 845 24.95 -5.4 22.3 71 -9.8 14.4
11:05 1016 30 845 24.95 -5.3 22.4 70 -10 14
11:10 1016 30 845 24.95 -5.2 22.6 70 -9.9 14.3
11:15 1016 30 845 24.95 -5.2 22.6 67 -10.4 13.3
11:20 1016 30 845 24.95 -4.9 23.1 67 -10.2 13.6
11:25 1016 30 845 24.95 -5 23.1 65 -10.5 13.1
11:30 1016 30 845 24.95 -5 22.9 67 -10.3 13.5
11:35 1016 30 845 24.95 -4.9 23.1 66 -10.3 13.5
11:40 1016 30 845 24.95 -4.9 23.2 67 -10.1 13.8
11:45 1016 30 845 24.95 -5.1 22.9 68 -10.2 13.7
11:50 1016 30 845 24.95 -5.1 22.8 68 -10.1 13.8
11:55 1016 30 845 24.95 -5 23.1 69 -9.8 14.3
12:00 1016 30 845 24.95 -4.9 23.1 70 -9.5 14.9
12:05 1016 30 845 24.95 -5.3 22.5 70 -9.8 14.3
12:10 1016 30 845 24.95 -5.2 22.7 69 -10 14
12:15 1016 30 845 24.95 -5.2 22.6 71 -9.7 14.5
12:20 1016 30 845 24.95 -5.1 22.8 72 -9.5 15
12:25 1016 30 845 24.95 -4.6 23.7 69 -9.4 15.1
12:30 1016 30 845 24.95 -4.3 24.3 69 -9.1 15.6
12:35 1016 30 845 24.95 -4.3 24.3 68 -9.4 15.1
12:40 1016 30 845 24.95 -4.8 23.4 69 -9.6 14.7
12:45 1016 30 845 24.95 -4.6 23.7 69 -9.5 15
12:50 1016 30 845 24.95 -4.5 23.8 67 -9.7 14.5
12:55 1016 30 845 24.95 -4.4 24.1 65 -10 14
13:00 1016 30 845 24.95 -4.4 24 64 -10.4 13.3
13:05 1016 30 846 24.98 -4.4 24.1 61 -10.9 12.4
13:10 1016 30 846 24.98 -4.2 24.5 62 -10.5 13.1
13:15 1016 30 846 24.98 -4.2 24.5 65 -9.8 14.4
13:20 1016 30 846 24.98 -4.4 24 64 -10.3 13.4
13:25 1016 30 846 24.98 -4.6 23.8 65 -10.2 13.6
13:30 1017 30.03 846 24.98 -4.3 24.2 63 -10.3 13.5
13:35 1017 30.03 846 24.98 -4.4 24.1 62 -10.6 12.9
13:40 1017 30.03 846 24.98 -4.6 23.7 61 -10.9 12.4
13:45 1017 30.03 846 24.98 -4.4 24 60 -11 12.2
13:50 1017 30.03 846 24.98 -4.3 24.2 62 -10.4 13.2
13:55 1017 30.03 846 24.98 -4.4 24.1 62 -10.5 13.1
14:00 1017 30.03 846 24.98 -4.4 24 62 -10.7 12.7
14:05 1017 30.03 846 24.98 -4.4 24.1 61 -10.8 12.5
14:10 1017 30.03 846 24.98 -4.4 24.1 60 -11 12.3
14:15 1017 30.03 846 24.98 -4.4 24.1 62 -10.6 12.9
14:20 1017 30.03 846 24.98 -4.5 24 61 -10.8 12.5
14:25 1017 30.03 846 24.98 -4.6 23.7 62 -10.9 12.4
14:30 1017 30.03 846 24.98 -4.9 23.1 63 -10.9 12.4
14:35 1017 30.03 846 24.98 -5 23 64 -10.8 12.6
14:40 1017 30.03 846 24.98 -5.3 22.4 66 -10.7 12.7
14:45 1017 30.03 846 24.98 -5.1 22.7 63 -11.1 12.1
14:50 1017 30.03 846 24.98 -5.3 22.4 64 -11 12.2
14:55 1017 30.03 846 24.98 -5.2 22.6 64 -11 12.3
15:00 1017 30.03 846 24.98 -5.4 22.3 61 -11.7 11
15:05 1017 30.03 846 24.98 -5.6 22 63 -11.5 11.2
15:10 1017 30.03 846 24.98 -5.5 22 63 -11.5 11.3
15:15 1017 30.03 846 24.98 -5.4 22.2 63 -11.4 11.5
15:20 1017 30.03 847 25.01 -5.4 22.2 64 -11.2 11.9
15:25 1017 30.03 847 25.01 -5.7 21.8 65 -11.3 11.7
15:30 1018 30.06 847 25.01 -5.8 21.6 66 -11.1 12
15:35 1018 30.06 847 25.01 -5.9 21.4 66 -11.2 11.9
15:40 1018 30.06 847 25.01 -5.8 21.5 67 -10.9 12.3
15:45 1018 30.06 847 25.01 -5.8 21.5 69 -10.6 12.9
15:50 1018 30.06 847 25.01 -5.8 21.5 69 -10.6 12.9
15:55 1018 30.06 847 25.01 -5.9 21.3 68 -10.9 12.5
16:00 1018 30.06 847 25.01 -6.1 21 68 -11 12.2
16:05 1018 30.06 847 25.01 -6.3 20.6 72 -10.5 13
16:10 1018 30.06 847 25.01 -6.3 20.6 71 -10.7 12.7
16:15 1018 30.06 847 25.01 -6.3 20.6 71 -10.7 12.8
16:20 1018 30.06 847 25.01 -6.4 20.4 70 -11 12.3
16:25 1018 30.06 848 25.04 -6.4 20.4 72 -10.7 12.7
16:30 1018 30.06 848 25.04 -6.4 20.4 71 -10.9 12.5
16:35 1019 30.09 848 25.04 -6.6 20.2 71 -11 12.2
16:40 1019 30.09 848 25.04 -6.5 20.2 71 -11 12.1
16:45 1019 30.09 848 25.04 -6.5 20.2 69 -11.4 11.5
16:50 1019 30.09 848 25.04 -6.5 20.3 68 -11.5 11.3
16:55 1019 30.09 848 25.04 -6.5 20.3 70 -11.2 11.8
17:00 1019 30.09 848 25.04 -6.6 20.1 70 -11.2 11.8
17:05 1019 30.09 848 25.04 -6.7 20 68 -11.6 11.1
17:10 1019 30.09 848 25.04 -6.6 20 69 -11.5 11.4
17:15 1019 30.09 848 25.04 -6.6 20.1 68 -11.5 11.3
17:20 1019 30.09 848 25.04 -6.5 20.3 69 -11.2 11.9
17:25 1019 30.09 848 25.04 -6.7 19.9 71 -11.1 11.9
17:30 1019 30.09 848 25.04 -6.9 19.5 72 -11.2 11.9
17:35 1019 30.09 848 25.04 -7.1 19.2 72 -11.3 11.7
17:40 1019 30.09 848 25.04 -7.2 19.1 73 -11.2 11.8
17:45 1019 30.09 848 25.04 -7.3 18.9 74 -11.2 11.8
17:50 1019 30.09 848 25.04 -7.3 18.8 72 -11.5 11.2
17:55 1019 30.09 848 25.04 -7.3 18.8 72 -11.5 11.3
18:00 1019 30.09 849 25.07 -7.3 18.8 74 -11.3 11.7
18:05 1019 30.09 849 25.07 -7.5 18.6 75 -11.1 12.1
18:10 1019 30.09 849 25.07 -7.6 18.4 76 -11.1 12
18:15 1019 30.09 849 25.07 -7.6 18.2 78 -10.9 12.4
18:20 1020 30.12 849 25.07 -7.8 17.9 76 -11.3 11.7
18:25 1020 30.12 849 25.07 -7.9 17.8 76 -11.4 11.6
18:30 1020 30.12 849 25.07 -8 17.5 77 -11.3 11.6
18:35 1020 30.12 849 25.07 -8.1 17.4 78 -11.3 11.6
18:40 1020 30.12 849 25.07 -8.2 17.2 80 -11 12.2
18:45 1020 30.12 849 25.07 -8.2 17.2 79 -11.2 11.8
18:50 1020 30.12 849 25.07 -8.3 17.2 81 -11 12.2
18:55 1020 30.12 849 25.07 -8.3 17.1 80 -11.1 12.1
19:00 1020 30.12 849 25.07 -8.3 17 80 -11.3 11.7
19:05 1020 30.12 849 25.07 -8.4 16.9 80 -11.3 11.7
19:10 1020 30.12 849 25.07 -8.4 16.9 80 -11.2 11.8
19:15 1020 30.12 849 25.07 -8.4 16.8 80 -11.2 11.8
19:20 1020 30.12 850 25.1 -8.5 16.7 81 -11.3 11.7
19:25 1020 30.12 850 25.1 -8.6 16.6 80 -11.4 11.4
19:30 1020 30.12 850 25.1 -8.6 16.4 81 -11.3 11.7
19:35 1021 30.15 850 25.1 -8.6 16.5 82 -11.2 11.8
19:40 1021 30.15 850 25.1 -8.7 16.4 82 -11.3 11.7
19:45 1021 30.15 850 25.1 -8.7 16.3 81 -11.4 11.4
19:50 1021 30.15 850 25.1 -8.7 16.4 82 -11.3 11.7
19:55 1021 30.15 850 25.1 -8.7 16.4 81 -11.3 11.6
20:00 1021 30.15 850 25.1 -8.7 16.4 80 -11.6 11.2
20:05 1021 30.15 850 25.1 -8.6 16.4 79 -11.6 11
20:10 1021 30.15 850 25.1 -8.6 16.5 78 -11.9 10.7
20:15 1021 30.15 850 25.1 -8.6 16.5 77 -11.9 10.7
20:20 1021 30.15 850 25.1 -8.6 16.6 77 -11.9 10.6
20:25 1021 30.15 850 25.1 -8.5 16.6 76 -12 10.4
20:30 1021 30.15 850 25.1 -8.5 16.7 74 -12.3 9.9
20:35 1021 30.15 850 25.1 -8.5 16.7 73 -12.5 9.5
20:40 1021 30.15 850 25.1 -8.5 16.7 73 -12.5 9.6
20:45 1021 30.15 851 25.13 -8.5 16.8 73 -12.5 9.4
20:50 1021 30.15 851 25.13 -8.5 16.7 73 -12.5 9.5
20:55 1022 30.18 851 25.13 -8.5 16.7 73 -12.5 9.5
21:00 1022 30.18 851 25.13 -8.5 16.7 73 -12.6 9.4
21:05 1022 30.18 851 25.13 -8.6 16.6 73 -12.6 9.3
21:10 1022 30.18 851 25.13 -8.6 16.6 72 -12.8 9
21:15 1022 30.18 851 25.13 -8.6 16.6 71 -13 8.6
21:20 1022 30.18 851 25.13 -8.7 16.4 70 -13.2 8.2
21:25 1022 30.18 851 25.13 -8.7 16.4 71 -13 8.6
21:30 1022 30.18 851 25.13 -8.8 16.1 74 -12.7 9.2
21:35 1022 30.18 851 25.13 -8.9 16 75 -12.6 9.4
21:40 1022 30.18 851 25.13 -9 15.8 76 -12.4 9.6
21:45 1022 30.18 851 25.13 -8.9 15.9 76 -12.4 9.7
21:50 1022 30.18 851 25.13 -8.9 16 77 -12.3 9.9
21:55 1022 30.18 851 25.13 -8.9 16 76 -12.4 9.7
22:00 1022 30.18 851 25.13 -8.9 16.1 74 -12.6 9.3
22:05 1022 30.18 851 25.13 -8.8 16.1 74 -12.6 9.2
22:10 1022 30.18 851 25.13 -8.8 16.1 75 -12.5 9.4
22:15 1022 30.18 851 25.13 -8.9 16 74 -12.8 9
22:20 1022 30.18 851 25.13 -8.9 16 75 -12.5 9.5
22:25 1022 30.18 851 25.13 -8.9 16 74 -12.6 9.3
22:30 1022 30.18 851 25.13 -8.9 16.1 75 -12.6 9.3
22:35 1022 30.18 851 25.13 -8.9 16.1 75 -12.6 9.3
22:40 1022 30.18 851 25.13 -8.9 16 74 -12.8 9
22:45 1022 30.18 851 25.13 -8.9 16.1 75 -12.6 9.4
22:50 1022 30.18 851 25.13 -8.9 16.1 74 -12.7 9.2
22:55 1022 30.18 851 25.13 -8.9 16.1 74 -12.7 9.1
23:00 1022 30.18 851 25.13 -8.9 16.1 73 -12.9 8.8
23:05 1022 30.18 851 25.13 -8.8 16.1 72 -13 8.6
23:10 1022 30.18 851 25.13 -8.8 16.1 72 -13 8.6
23:15 1022 30.18 851 25.13 -8.8 16.2 73 -12.8 8.9
23:20 1022 30.18 851 25.13 -8.8 16.1 74 -12.7 9.1
23:25 1022 30.18 851 25.13 -8.9 16.1 74 -12.8 9
23:30 1022 30.18 851 25.13 -8.9 16 74 -12.8 9
23:35 1022 30.18 851 25.13 -8.9 16 73 -13 8.7
23:40 1022 30.18 851 25.13 -8.9 16 72 -13.1 8.5
23:45 1022 30.18 851 25.13 -8.9 16 73 -13 8.7
23:50 1022 30.18 851 25.13 -8.9 16 70 -13.4 7.9
23:55 1022 30.18 851 25.13 -8.8 16.1 69 -13.5 7.8
24:00 1022 30.18 851 25.13 -8.8 16.2 67 -13.9 7